sensor_id;sensor_type;location;lat;lon;timestamp;P1;durP1;ratioP1;P2;durP2;ratioP2
74369;SDS011;62805;44.644;10.942;2023-04-16T00:02:13;7.40;;;2.70;;
74369;SDS011;62805;44.644;10.942;2023-04-16T00:04:39;5.03;;;2.85;;
74369;SDS011;62805;44.644;10.942;2023-04-16T00:07:04;9.65;;;3.13;;
74369;SDS011;62805;44.644;10.942;2023-04-16T00:09:29;9.43;;;2.77;;
74369;SDS011;62805;44.644;10.942;2023-04-16T00:11:55;5.18;;;2.70;;
74369;SDS011;62805;44.644;10.942;2023-04-16T00:14:20;6.97;;;2.95;;
74369;SDS011;62805;44.644;10.942;2023-04-16T00:16:46;4.95;;;2.55;;
74369;SDS011;62805;44.644;10.942;2023-04-16T00:19:11;6.37;;;2.50;;
74369;SDS011;62805;44.644;10.942;2023-04-16T00:21:36;6.15;;;2.78;;
74369;SDS011;62805;44.644;10.942;2023-04-16T00:24:02;7.38;;;2.67;;
74369;SDS011;62805;44.644;10.942;2023-04-16T00:26:27;5.38;;;3.15;;
74369;SDS011;62805;44.644;10.942;2023-04-16T00:28:52;7.97;;;2.70;;
74369;SDS011;62805;44.644;10.942;2023-04-16T00:31:24;9.77;;;2.78;;
74369;SDS011;62805;44.644;10.942;2023-04-16T00:33:54;6.88;;;2.80;;
74369;SDS011;62805;44.644;10.942;2023-04-16T00:36:19;6.75;;;2.85;;
74369;SDS011;62805;44.644;10.942;2023-04-16T00:38:45;9.00;;;2.92;;
74369;SDS011;62805;44.644;10.942;2023-04-16T00:41:10;5.07;;;2.90;;
74369;SDS011;62805;44.644;10.942;2023-04-16T00:43:36;4.80;;;2.70;;
74369;SDS011;62805;44.644;10.942;2023-04-16T00:46:01;7.88;;;3.20;;
74369;SDS011;62805;44.644;10.942;2023-04-16T00:48:29;11.88;;;3.45;;
74369;SDS011;62805;44.644;10.942;2023-04-16T00:50:57;4.32;;;2.60;;
74369;SDS011;62805;44.644;10.942;2023-04-16T00:53:23;8.50;;;2.83;;
74369;SDS011;62805;44.644;10.942;2023-04-16T00:55:48;7.82;;;3.08;;
74369;SDS011;62805;44.644;10.942;2023-04-16T00:58:14;4.18;;;2.42;;
74369;SDS011;62805;44.644;10.942;2023-04-16T01:00:40;6.03;;;2.78;;
74369;SDS011;62805;44.644;10.942;2023-04-16T01:03:05;6.07;;;2.57;;
74369;SDS011;62805;44.644;10.942;2023-04-16T01:05:31;6.22;;;2.90;;
74369;SDS011;62805;44.644;10.942;2023-04-16T01:07:59;4.88;;;2.10;;
74369;SDS011;62805;44.644;10.942;2023-04-16T01:10:25;6.90;;;3.03;;
74369;SDS011;62805;44.644;10.942;2023-04-16T01:12:50;8.07;;;2.83;;
74369;SDS011;62805;44.644;10.942;2023-04-16T01:15:16;7.93;;;3.37;;
74369;SDS011;62805;44.644;10.942;2023-04-16T01:17:42;6.45;;;2.65;;
74369;SDS011;62805;44.644;10.942;2023-04-16T01:20:10;5.78;;;2.60;;
74369;SDS011;62805;44.644;10.942;2023-04-16T01:22:35;6.82;;;2.17;;
74369;SDS011;62805;44.644;10.942;2023-04-16T01:25:01;9.95;;;3.60;;
74369;SDS011;62805;44.644;10.942;2023-04-16T01:27:26;6.22;;;2.97;;
74369;SDS011;62805;44.644;10.942;2023-04-16T01:29:51;7.17;;;3.10;;
74369;SDS011;62805;44.644;10.942;2023-04-16T01:32:17;6.63;;;2.83;;
74369;SDS011;62805;44.644;10.942;2023-04-16T01:34:42;6.60;;;3.30;;
74369;SDS011;62805;44.644;10.942;2023-04-16T01:37:07;7.53;;;2.73;;
74369;SDS011;62805;44.644;10.942;2023-04-16T01:39:33;8.83;;;2.70;;
74369;SDS011;62805;44.644;10.942;2023-04-16T01:41:58;5.22;;;2.88;;
74369;SDS011;62805;44.644;10.942;2023-04-16T01:44:23;6.70;;;2.63;;
74369;SDS011;62805;44.644;10.942;2023-04-16T01:46:49;6.85;;;2.95;;
74369;SDS011;62805;44.644;10.942;2023-04-16T01:49:15;4.68;;;3.08;;
74369;SDS011;62805;44.644;10.942;2023-04-16T01:51:40;6.20;;;2.83;;
74369;SDS011;62805;44.644;10.942;2023-04-16T01:54:06;5.57;;;2.70;;
74369;SDS011;62805;44.644;10.942;2023-04-16T01:56:31;6.43;;;2.72;;
74369;SDS011;62805;44.644;10.942;2023-04-16T01:58:57;7.68;;;2.60;;
74369;SDS011;62805;44.644;10.942;2023-04-16T02:01:22;6.80;;;3.10;;
74369;SDS011;62805;44.644;10.942;2023-04-16T02:03:48;4.35;;;2.65;;
74369;SDS011;62805;44.644;10.942;2023-04-16T02:06:13;12.55;;;3.33;;
74369;SDS011;62805;44.644;10.942;2023-04-16T02:08:39;8.30;;;2.83;;
74369;SDS011;62805;44.644;10.942;2023-04-16T02:11:05;5.30;;;2.70;;
74369;SDS011;62805;44.644;10.942;2023-04-16T02:13:31;5.63;;;3.15;;
74369;SDS011;62805;44.644;10.942;2023-04-16T02:15:56;10.57;;;3.07;;
74369;SDS011;62805;44.644;10.942;2023-04-16T02:18:21;5.55;;;2.92;;
74369;SDS011;62805;44.644;10.942;2023-04-16T02:20:47;6.00;;;2.72;;
74369;SDS011;62805;44.644;10.942;2023-04-16T02:23:13;6.82;;;2.90;;
74369;SDS011;62805;44.644;10.942;2023-04-16T02:25:45;6.68;;;2.88;;
74369;SDS011;62805;44.644;10.942;2023-04-16T02:28:12;6.70;;;3.33;;
74369;SDS011;62805;44.644;10.942;2023-04-16T02:30:39;6.72;;;3.03;;
74369;SDS011;62805;44.644;10.942;2023-04-16T02:33:06;5.72;;;2.85;;
74369;SDS011;62805;44.644;10.942;2023-04-16T02:35:35;7.82;;;3.15;;
74369;SDS011;62805;44.644;10.942;2023-04-16T02:38:02;6.00;;;3.13;;
74369;SDS011;62805;44.644;10.942;2023-04-16T02:40:28;5.45;;;2.95;;
74369;SDS011;62805;44.644;10.942;2023-04-16T02:42:54;6.63;;;2.97;;
74369;SDS011;62805;44.644;10.942;2023-04-16T02:45:20;5.25;;;2.63;;
74369;SDS011;62805;44.644;10.942;2023-04-16T02:47:46;8.48;;;3.38;;
74369;SDS011;62805;44.644;10.942;2023-04-16T02:50:12;7.68;;;3.20;;
74369;SDS011;62805;44.644;10.942;2023-04-16T02:52:37;5.40;;;3.28;;
74369;SDS011;62805;44.644;10.942;2023-04-16T02:55:03;4.97;;;3.27;;
74369;SDS011;62805;44.644;10.942;2023-04-16T02:57:29;12.02;;;2.95;;
74369;SDS011;62805;44.644;10.942;2023-04-16T02:59:54;9.33;;;3.47;;
74369;SDS011;62805;44.644;10.942;2023-04-16T03:02:20;6.13;;;2.77;;
74369;SDS011;62805;44.644;10.942;2023-04-16T03:04:45;5.83;;;2.80;;
74369;SDS011;62805;44.644;10.942;2023-04-16T03:07:10;5.93;;;3.00;;
74369;SDS011;62805;44.644;10.942;2023-04-16T03:09:36;8.10;;;3.40;;
74369;SDS011;62805;44.644;10.942;2023-04-16T03:12:02;6.80;;;3.33;;
74369;SDS011;62805;44.644;10.942;2023-04-16T03:14:28;6.53;;;2.67;;
74369;SDS011;62805;44.644;10.942;2023-04-16T03:16:54;8.20;;;3.30;;
74369;SDS011;62805;44.644;10.942;2023-04-16T03:19:19;8.50;;;3.28;;
74369;SDS011;62805;44.644;10.942;2023-04-16T03:21:44;5.93;;;2.90;;
74369;SDS011;62805;44.644;10.942;2023-04-16T03:24:10;9.27;;;3.07;;
74369;SDS011;62805;44.644;10.942;2023-04-16T03:26:35;6.43;;;3.03;;
74369;SDS011;62805;44.644;10.942;2023-04-16T03:29:01;5.53;;;3.10;;
74369;SDS011;62805;44.644;10.942;2023-04-16T03:31:26;8.48;;;2.92;;
74369;SDS011;62805;44.644;10.942;2023-04-16T03:33:52;5.32;;;2.80;;
74369;SDS011;62805;44.644;10.942;2023-04-16T03:36:17;5.55;;;2.80;;
74369;SDS011;62805;44.644;10.942;2023-04-16T03:38:43;6.20;;;3.10;;
74369;SDS011;62805;44.644;10.942;2023-04-16T03:41:08;5.88;;;3.13;;
74369;SDS011;62805;44.644;10.942;2023-04-16T03:43:33;8.13;;;3.30;;
74369;SDS011;62805;44.644;10.942;2023-04-16T03:45:59;4.25;;;3.05;;
74369;SDS011;62805;44.644;10.942;2023-04-16T03:48:24;7.18;;;3.35;;
74369;SDS011;62805;44.644;10.942;2023-04-16T03:50:50;5.67;;;3.27;;
74369;SDS011;62805;44.644;10.942;2023-04-16T03:53:15;4.83;;;2.93;;
74369;SDS011;62805;44.644;10.942;2023-04-16T03:55:40;8.60;;;3.17;;
74369;SDS011;62805;44.644;10.942;2023-04-16T03:58:06;4.07;;;2.97;;
74369;SDS011;62805;44.644;10.942;2023-04-16T04:00:31;7.25;;;3.45;;
74369;SDS011;62805;44.644;10.942;2023-04-16T04:02:57;5.50;;;3.00;;
74369;SDS011;62805;44.644;10.942;2023-04-16T04:05:22;6.70;;;3.05;;
74369;SDS011;62805;44.644;10.942;2023-04-16T04:07:47;7.13;;;3.10;;
74369;SDS011;62805;44.644;10.942;2023-04-16T04:10:13;4.60;;;2.67;;
74369;SDS011;62805;44.644;10.942;2023-04-16T04:12:38;5.47;;;3.40;;
74369;SDS011;62805;44.644;10.942;2023-04-16T04:15:04;6.37;;;2.53;;
74369;SDS011;62805;44.644;10.942;2023-04-16T04:17:30;5.20;;;3.00;;
74369;SDS011;62805;44.644;10.942;2023-04-16T04:19:55;5.40;;;2.53;;
74369;SDS011;62805;44.644;10.942;2023-04-16T04:22:20;7.30;;;3.28;;
74369;SDS011;62805;44.644;10.942;2023-04-16T04:24:46;5.97;;;2.67;;
74369;SDS011;62805;44.644;10.942;2023-04-16T04:27:11;6.78;;;2.83;;
74369;SDS011;62805;44.644;10.942;2023-04-16T04:29:37;4.00;;;2.50;;
74369;SDS011;62805;44.644;10.942;2023-04-16T04:32:02;10.57;;;2.83;;
74369;SDS011;62805;44.644;10.942;2023-04-16T04:34:27;6.63;;;2.88;;
74369;SDS011;62805;44.644;10.942;2023-04-16T04:36:53;6.90;;;2.83;;
74369;SDS011;62805;44.644;10.942;2023-04-16T04:39:18;5.17;;;3.07;;
74369;SDS011;62805;44.644;10.942;2023-04-16T04:41:45;9.43;;;3.03;;
74369;SDS011;62805;44.644;10.942;2023-04-16T04:44:11;6.15;;;2.70;;
74369;SDS011;62805;44.644;10.942;2023-04-16T04:46:37;5.20;;;2.65;;
74369;SDS011;62805;44.644;10.942;2023-04-16T04:49:02;6.25;;;3.00;;
74369;SDS011;62805;44.644;10.942;2023-04-16T04:51:27;5.93;;;3.33;;
74369;SDS011;62805;44.644;10.942;2023-04-16T04:53:53;7.03;;;3.67;;
74369;SDS011;62805;44.644;10.942;2023-04-16T04:56:18;5.63;;;3.10;;
74369;SDS011;62805;44.644;10.942;2023-04-16T04:58:44;4.82;;;3.13;;
74369;SDS011;62805;44.644;10.942;2023-04-16T05:01:10;6.97;;;3.73;;
74369;SDS011;62805;44.644;10.942;2023-04-16T05:03:35;6.85;;;3.58;;
74369;SDS011;62805;44.644;10.942;2023-04-16T05:06:00;7.30;;;3.15;;
74369;SDS011;62805;44.644;10.942;2023-04-16T05:08:26;7.00;;;3.33;;
74369;SDS011;62805;44.644;10.942;2023-04-16T05:10:51;7.70;;;4.10;;
74369;SDS011;62805;44.644;10.942;2023-04-16T05:13:17;7.45;;;3.45;;
74369;SDS011;62805;44.644;10.942;2023-04-16T05:15:42;7.53;;;3.90;;
74369;SDS011;62805;44.644;10.942;2023-04-16T05:18:09;10.30;;;3.97;;
74369;SDS011;62805;44.644;10.942;2023-04-16T05:20:35;7.95;;;3.47;;
74369;SDS011;62805;44.644;10.942;2023-04-16T05:23:01;7.07;;;4.13;;
74369;SDS011;62805;44.644;10.942;2023-04-16T05:25:27;9.65;;;3.53;;
74369;SDS011;62805;44.644;10.942;2023-04-16T05:27:52;6.50;;;4.00;;
74369;SDS011;62805;44.644;10.942;2023-04-16T05:30:17;10.57;;;3.90;;
74369;SDS011;62805;44.644;10.942;2023-04-16T05:32:43;7.72;;;4.13;;
74369;SDS011;62805;44.644;10.942;2023-04-16T05:35:09;10.05;;;4.47;;
74369;SDS011;62805;44.644;10.942;2023-04-16T05:37:34;7.25;;;4.20;;
74369;SDS011;62805;44.644;10.942;2023-04-16T05:40:00;7.57;;;3.78;;
74369;SDS011;62805;44.644;10.942;2023-04-16T05:42:26;5.82;;;3.92;;
74369;SDS011;62805;44.644;10.942;2023-04-16T05:44:51;7.10;;;4.17;;
74369;SDS011;62805;44.644;10.942;2023-04-16T05:47:17;8.32;;;4.22;;
74369;SDS011;62805;44.644;10.942;2023-04-16T05:49:42;12.55;;;4.13;;
74369;SDS011;62805;44.644;10.942;2023-04-16T05:52:07;9.48;;;4.15;;
74369;SDS011;62805;44.644;10.942;2023-04-16T05:54:33;9.02;;;4.10;;
74369;SDS011;62805;44.644;10.942;2023-04-16T05:56:59;7.07;;;4.88;;
74369;SDS011;62805;44.644;10.942;2023-04-16T05:59:25;7.43;;;3.85;;
74369;SDS011;62805;44.644;10.942;2023-04-16T06:01:51;8.13;;;4.07;;
74369;SDS011;62805;44.644;10.942;2023-04-16T06:04:16;13.30;;;4.97;;
74369;SDS011;62805;44.644;10.942;2023-04-16T06:06:42;6.47;;;3.72;;
74369;SDS011;62805;44.644;10.942;2023-04-16T06:09:07;10.98;;;3.72;;
74369;SDS011;62805;44.644;10.942;2023-04-16T06:11:33;7.15;;;4.32;;
74369;SDS011;62805;44.644;10.942;2023-04-16T06:13:58;9.05;;;4.45;;
74369;SDS011;62805;44.644;10.942;2023-04-16T06:16:24;9.77;;;4.20;;
74369;SDS011;62805;44.644;10.942;2023-04-16T06:18:49;7.57;;;4.18;;
74369;SDS011;62805;44.644;10.942;2023-04-16T06:21:14;8.20;;;4.33;;
74369;SDS011;62805;44.644;10.942;2023-04-16T06:23:40;11.57;;;4.38;;
74369;SDS011;62805;44.644;10.942;2023-04-16T06:26:05;8.75;;;4.93;;
74369;SDS011;62805;44.644;10.942;2023-04-16T06:28:30;9.02;;;4.45;;
74369;SDS011;62805;44.644;10.942;2023-04-16T06:30:56;12.43;;;4.57;;
74369;SDS011;62805;44.644;10.942;2023-04-16T06:33:21;8.50;;;4.30;;
74369;SDS011;62805;44.644;10.942;2023-04-16T06:35:47;7.68;;;4.13;;
74369;SDS011;62805;44.644;10.942;2023-04-16T06:38:12;10.53;;;4.70;;
74369;SDS011;62805;44.644;10.942;2023-04-16T06:40:38;6.65;;;4.18;;
74369;SDS011;62805;44.644;10.942;2023-04-16T06:43:04;6.88;;;4.13;;
74369;SDS011;62805;44.644;10.942;2023-04-16T06:45:29;8.07;;;3.90;;
74369;SDS011;62805;44.644;10.942;2023-04-16T06:47:55;12.10;;;4.70;;
74369;SDS011;62805;44.644;10.942;2023-04-16T06:50:22;7.30;;;3.95;;
74369;SDS011;62805;44.644;10.942;2023-04-16T06:52:48;6.93;;;4.05;;
74369;SDS011;62805;44.644;10.942;2023-04-16T06:55:14;9.00;;;3.85;;
74369;SDS011;62805;44.644;10.942;2023-04-16T06:57:40;9.27;;;3.90;;
74369;SDS011;62805;44.644;10.942;2023-04-16T07:00:05;7.70;;;4.50;;
74369;SDS011;62805;44.644;10.942;2023-04-16T07:02:31;10.25;;;4.07;;
74369;SDS011;62805;44.644;10.942;2023-04-16T07:04:56;8.57;;;4.07;;
74369;SDS011;62805;44.644;10.942;2023-04-16T07:07:21;10.50;;;4.30;;
74369;SDS011;62805;44.644;10.942;2023-04-16T07:09:47;7.40;;;4.20;;
74369;SDS011;62805;44.644;10.942;2023-04-16T07:12:12;8.03;;;4.33;;
74369;SDS011;62805;44.644;10.942;2023-04-16T07:14:37;9.20;;;4.25;;
74369;SDS011;62805;44.644;10.942;2023-04-16T07:17:03;6.75;;;4.18;;
74369;SDS011;62805;44.644;10.942;2023-04-16T07:19:28;7.77;;;4.10;;
74369;SDS011;62805;44.644;10.942;2023-04-16T07:21:56;9.32;;;4.05;;
74369;SDS011;62805;44.644;10.942;2023-04-16T07:24:24;6.32;;;3.47;;
74369;SDS011;62805;44.644;10.942;2023-04-16T07:26:50;10.00;;;4.15;;
74369;SDS011;62805;44.644;10.942;2023-04-16T07:29:15;8.17;;;3.93;;
74369;SDS011;62805;44.644;10.942;2023-04-16T07:31:40;7.68;;;3.45;;
74369;SDS011;62805;44.644;10.942;2023-04-16T07:34:06;7.07;;;3.53;;
74369;SDS011;62805;44.644;10.942;2023-04-16T07:36:31;8.20;;;3.75;;
74369;SDS011;62805;44.644;10.942;2023-04-16T07:38:56;8.63;;;3.70;;
74369;SDS011;62805;44.644;10.942;2023-04-16T07:41:22;7.70;;;3.35;;
74369;SDS011;62805;44.644;10.942;2023-04-16T07:43:47;7.25;;;3.67;;
74369;SDS011;62805;44.644;10.942;2023-04-16T07:46:13;8.65;;;3.60;;
74369;SDS011;62805;44.644;10.942;2023-04-16T07:48:38;7.17;;;3.00;;
74369;SDS011;62805;44.644;10.942;2023-04-16T07:51:03;7.63;;;3.10;;
74369;SDS011;62805;44.644;10.942;2023-04-16T07:53:29;5.75;;;3.30;;
74369;SDS011;62805;44.644;10.942;2023-04-16T07:55:54;9.75;;;3.10;;
74369;SDS011;62805;44.644;10.942;2023-04-16T07:58:20;10.70;;;2.88;;
74369;SDS011;62805;44.644;10.942;2023-04-16T08:00:45;10.57;;;3.50;;
74369;SDS011;62805;44.644;10.942;2023-04-16T08:03:10;8.02;;;2.92;;
74369;SDS011;62805;44.644;10.942;2023-04-16T08:05:36;7.13;;;2.73;;
74369;SDS011;62805;44.644;10.942;2023-04-16T08:08:01;6.43;;;2.33;;
74369;SDS011;62805;44.644;10.942;2023-04-16T08:10:26;9.20;;;2.90;;
74369;SDS011;62805;44.644;10.942;2023-04-16T08:12:52;9.02;;;2.10;;
74369;SDS011;62805;44.644;10.942;2023-04-16T08:15:18;7.18;;;2.63;;
74369;SDS011;62805;44.644;10.942;2023-04-16T08:17:43;10.07;;;2.03;;
74369;SDS011;62805;44.644;10.942;2023-04-16T08:20:09;8.43;;;2.30;;
74369;SDS011;62805;44.644;10.942;2023-04-16T08:22:34;8.00;;;2.10;;
74369;SDS011;62805;44.644;10.942;2023-04-16T08:25:00;6.50;;;2.13;;
74369;SDS011;62805;44.644;10.942;2023-04-16T08:27:26;7.65;;;1.75;;
74369;SDS011;62805;44.644;10.942;2023-04-16T08:29:53;5.45;;;1.90;;
74369;SDS011;62805;44.644;10.942;2023-04-16T08:32:18;8.63;;;2.50;;
74369;SDS011;62805;44.644;10.942;2023-04-16T08:34:44;3.25;;;1.38;;
74369;SDS011;62805;44.644;10.942;2023-04-16T08:37:10;4.05;;;1.40;;
74369;SDS011;62805;44.644;10.942;2023-04-16T08:39:35;8.68;;;1.50;;
74369;SDS011;62805;44.644;10.942;2023-04-16T08:42:03;7.55;;;1.17;;
74369;SDS011;62805;44.644;10.942;2023-04-16T08:44:31;4.57;;;0.88;;
74369;SDS011;62805;44.644;10.942;2023-04-16T08:46:59;3.83;;;0.85;;
74369;SDS011;62805;44.644;10.942;2023-04-16T08:49:26;7.97;;;0.90;;
74369;SDS011;62805;44.644;10.942;2023-04-16T08:51:52;5.57;;;1.30;;
74369;SDS011;62805;44.644;10.942;2023-04-16T08:57:12;3.22;;;1.00;;
74369;SDS011;62805;44.644;10.942;2023-04-16T08:59:45;5.22;;;1.02;;
74369;SDS011;62805;44.644;10.942;2023-04-16T09:02:11;7.75;;;1.15;;
74369;SDS011;62805;44.644;10.942;2023-04-16T09:04:37;2.72;;;0.73;;
74369;SDS011;62805;44.644;10.942;2023-04-16T09:07:03;1.95;;;0.80;;
74369;SDS011;62805;44.644;10.942;2023-04-16T09:09:31;1.98;;;0.63;;
74369;SDS011;62805;44.644;10.942;2023-04-16T09:11:57;5.97;;;0.70;;
74369;SDS011;62805;44.644;10.942;2023-04-16T09:14:23;4.25;;;1.00;;
74369;SDS011;62805;44.644;10.942;2023-04-16T09:16:49;1.98;;;0.60;;
74369;SDS011;62805;44.644;10.942;2023-04-16T09:19:17;1.75;;;0.80;;
74369;SDS011;62805;44.644;10.942;2023-04-16T09:21:44;2.63;;;0.85;;
74369;SDS011;62805;44.644;10.942;2023-04-16T09:24:11;3.25;;;0.90;;
74369;SDS011;62805;44.644;10.942;2023-04-16T09:26:37;1.45;;;1.17;;
74369;SDS011;62805;44.644;10.942;2023-04-16T09:29:03;2.13;;;0.70;;
74369;SDS011;62805;44.644;10.942;2023-04-16T09:31:28;2.97;;;0.80;;
74369;SDS011;62805;44.644;10.942;2023-04-16T09:34:04;2.00;;;0.60;;
74369;SDS011;62805;44.644;10.942;2023-04-16T09:36:31;2.40;;;0.88;;
74369;SDS011;62805;44.644;10.942;2023-04-16T09:38:57;2.13;;;0.90;;
74369;SDS011;62805;44.644;10.942;2023-04-16T09:41:24;3.03;;;1.15;;
74369;SDS011;62805;44.644;10.942;2023-04-16T09:46:20;1.67;;;0.47;;
74369;SDS011;62805;44.644;10.942;2023-04-16T09:48:46;0.93;;;0.60;;
74369;SDS011;62805;44.644;10.942;2023-04-16T09:51:11;2.00;;;0.70;;
74369;SDS011;62805;44.644;10.942;2023-04-16T09:53:37;2.08;;;0.80;;
74369;SDS011;62805;44.644;10.942;2023-04-16T09:56:03;1.30;;;0.85;;
74369;SDS011;62805;44.644;10.942;2023-04-16T09:58:30;1.90;;;0.77;;
74369;SDS011;62805;44.644;10.942;2023-04-16T10:01:02;1.55;;;0.60;;
74369;SDS011;62805;44.644;10.942;2023-04-16T10:03:34;2.47;;;0.93;;
74369;SDS011;62805;44.644;10.942;2023-04-16T10:06:07;2.95;;;1.00;;
74369;SDS011;62805;44.644;10.942;2023-04-16T10:08:33;2.17;;;1.10;;
74369;SDS011;62805;44.644;10.942;2023-04-16T10:10:58;2.40;;;0.85;;
74369;SDS011;62805;44.644;10.942;2023-04-16T10:13:24;1.98;;;0.82;;
74369;SDS011;62805;44.644;10.942;2023-04-16T10:15:55;2.30;;;1.23;;
74369;SDS011;62805;44.644;10.942;2023-04-16T10:18:21;3.38;;;1.42;;
74369;SDS011;62805;44.644;10.942;2023-04-16T10:20:47;2.05;;;0.98;;
74369;SDS011;62805;44.644;10.942;2023-04-16T10:23:15;1.75;;;1.00;;
74369;SDS011;62805;44.644;10.942;2023-04-16T10:25:41;2.45;;;1.10;;
74369;SDS011;62805;44.644;10.942;2023-04-16T10:28:08;2.30;;;1.10;;
74369;SDS011;62805;44.644;10.942;2023-04-16T10:30:34;2.45;;;1.20;;
74369;SDS011;62805;44.644;10.942;2023-04-16T10:33:01;2.38;;;1.00;;
74369;SDS011;62805;44.644;10.942;2023-04-16T10:35:28;2.63;;;1.20;;
74369;SDS011;62805;44.644;10.942;2023-04-16T10:38:02;2.15;;;1.20;;
74369;SDS011;62805;44.644;10.942;2023-04-16T10:40:47;2.75;;;1.17;;
74369;SDS011;62805;44.644;10.942;2023-04-16T10:43:16;3.22;;;1.52;;
74369;SDS011;62805;44.644;10.942;2023-04-16T10:45:42;1.83;;;1.13;;
74369;SDS011;62805;44.644;10.942;2023-04-16T10:48:07;2.33;;;1.20;;
74369;SDS011;62805;44.644;10.942;2023-04-16T10:50:36;3.70;;;1.00;;
74369;SDS011;62805;44.644;10.942;2023-04-16T10:55:57;1.65;;;0.82;;
74369;SDS011;62805;44.644;10.942;2023-04-16T10:58:33;1.75;;;1.10;;
74369;SDS011;62805;44.644;10.942;2023-04-16T11:01:00;2.08;;;1.00;;
74369;SDS011;62805;44.644;10.942;2023-04-16T11:03:30;3.95;;;1.55;;
74369;SDS011;62805;44.644;10.942;2023-04-16T11:06:09;3.45;;;1.33;;
74369;SDS011;62805;44.644;10.942;2023-04-16T11:11:03;1.98;;;1.23;;
74369;SDS011;62805;44.644;10.942;2023-04-16T11:13:29;2.92;;;1.60;;
74369;SDS011;62805;44.644;10.942;2023-04-16T11:15:56;2.55;;;1.13;;
74369;SDS011;62805;44.644;10.942;2023-04-16T11:18:22;2.45;;;1.27;;
74369;SDS011;62805;44.644;10.942;2023-04-16T11:20:49;2.40;;;1.17;;
74369;SDS011;62805;44.644;10.942;2023-04-16T11:23:15;2.08;;;0.80;;
74369;SDS011;62805;44.644;10.942;2023-04-16T11:25:41;3.55;;;0.80;;
74369;SDS011;62805;44.644;10.942;2023-04-16T11:28:06;2.23;;;0.67;;
74369;SDS011;62805;44.644;10.942;2023-04-16T11:30:34;1.90;;;0.80;;
74369;SDS011;62805;44.644;10.942;2023-04-16T11:33:03;1.90;;;0.93;;
74369;SDS011;62805;44.644;10.942;2023-04-16T11:35:29;1.92;;;0.70;;
74369;SDS011;62805;44.644;10.942;2023-04-16T11:37:55;3.30;;;1.80;;
74369;SDS011;62805;44.644;10.942;2023-04-16T11:40:21;2.67;;;1.23;;
74369;SDS011;62805;44.644;10.942;2023-04-16T11:42:47;2.13;;;1.10;;
74369;SDS011;62805;44.644;10.942;2023-04-16T11:45:12;1.57;;;0.70;;
74369;SDS011;62805;44.644;10.942;2023-04-16T11:47:42;1.83;;;1.08;;
74369;SDS011;62805;44.644;10.942;2023-04-16T11:52:53;2.15;;;0.60;;
74369;SDS011;62805;44.644;10.942;2023-04-16T11:55:20;1.80;;;0.88;;
74369;SDS011;62805;44.644;10.942;2023-04-16T11:57:46;1.63;;;0.70;;
74369;SDS011;62805;44.644;10.942;2023-04-16T12:00:12;2.85;;;1.50;;
74369;SDS011;62805;44.644;10.942;2023-04-16T12:02:42;3.40;;;1.42;;
74369;SDS011;62805;44.644;10.942;2023-04-16T12:08:02;2.42;;;1.20;;
74369;SDS011;62805;44.644;10.942;2023-04-16T12:10:31;2.97;;;0.80;;
74369;SDS011;62805;44.644;10.942;2023-04-16T12:15:46;3.05;;;0.90;;
74369;SDS011;62805;44.644;10.942;2023-04-16T12:18:16;1.23;;;0.65;;
74369;SDS011;62805;44.644;10.942;2023-04-16T12:20:42;1.95;;;0.95;;
74369;SDS011;62805;44.644;10.942;2023-04-16T12:23:21;2.08;;;1.10;;
74369;SDS011;62805;44.644;10.942;2023-04-16T12:25:54;2.33;;;1.10;;
74369;SDS011;62805;44.644;10.942;2023-04-16T12:28:30;2.35;;;1.20;;
74369;SDS011;62805;44.644;10.942;2023-04-16T12:30:57;1.95;;;1.08;;
74369;SDS011;62805;44.644;10.942;2023-04-16T12:33:22;3.40;;;1.13;;
74369;SDS011;62805;44.644;10.942;2023-04-16T12:35:48;1.70;;;0.90;;
74369;SDS011;62805;44.644;10.942;2023-04-16T12:38:14;1.50;;;0.65;;
74369;SDS011;62805;44.644;10.942;2023-04-16T12:40:40;2.78;;;0.95;;
74369;SDS011;62805;44.644;10.942;2023-04-16T12:43:05;6.88;;;3.88;;
74369;SDS011;62805;44.644;10.942;2023-04-16T12:45:32;2.88;;;1.88;;
74369;SDS011;62805;44.644;10.942;2023-04-16T12:47:57;0.90;;;0.73;;
74369;SDS011;62805;44.644;10.942;2023-04-16T12:50:23;1.70;;;0.80;;
74369;SDS011;62805;44.644;10.942;2023-04-16T12:52:48;1.70;;;0.93;;
74369;SDS011;62805;44.644;10.942;2023-04-16T12:55:14;3.35;;;1.60;;
74369;SDS011;62805;44.644;10.942;2023-04-16T12:57:39;1.80;;;1.10;;
74369;SDS011;62805;44.644;10.942;2023-04-16T13:00:05;1.38;;;0.68;;
74369;SDS011;62805;44.644;10.942;2023-04-16T13:02:32;1.25;;;0.70;;
74369;SDS011;62805;44.644;10.942;2023-04-16T13:04:58;1.23;;;0.68;;
74369;SDS011;62805;44.644;10.942;2023-04-16T13:07:23;3.38;;;0.85;;
74369;SDS011;62805;44.644;10.942;2023-04-16T13:09:50;1.27;;;0.70;;
74369;SDS011;62805;44.644;10.942;2023-04-16T13:12:16;1.75;;;0.70;;
74369;SDS011;62805;44.644;10.942;2023-04-16T13:14:42;1.67;;;0.95;;
74369;SDS011;62805;44.644;10.942;2023-04-16T13:17:07;2.45;;;0.90;;
74369;SDS011;62805;44.644;10.942;2023-04-16T13:19:32;3.33;;;1.20;;
74369;SDS011;62805;44.644;10.942;2023-04-16T13:21:58;0.90;;;0.70;;
74369;SDS011;62805;44.644;10.942;2023-04-16T13:24:23;1.40;;;0.80;;
74369;SDS011;62805;44.644;10.942;2023-04-16T13:26:49;6.35;;;1.00;;
74369;SDS011;62805;44.644;10.942;2023-04-16T13:29:18;1.00;;;0.50;;
74369;SDS011;62805;44.644;10.942;2023-04-16T13:31:44;1.50;;;0.85;;
74369;SDS011;62805;44.644;10.942;2023-04-16T13:34:10;1.48;;;0.47;;
74369;SDS011;62805;44.644;10.942;2023-04-16T13:36:36;1.52;;;0.82;;
74369;SDS011;62805;44.644;10.942;2023-04-16T13:39:01;1.20;;;0.70;;
74369;SDS011;62805;44.644;10.942;2023-04-16T13:41:29;3.50;;;1.80;;
74369;SDS011;62805;44.644;10.942;2023-04-16T13:43:55;1.13;;;0.70;;
74369;SDS011;62805;44.644;10.942;2023-04-16T13:46:21;1.52;;;0.70;;
74369;SDS011;62805;44.644;10.942;2023-04-16T13:48:46;1.45;;;0.60;;
74369;SDS011;62805;44.644;10.942;2023-04-16T13:51:12;0.98;;;0.57;;
74369;SDS011;62805;44.644;10.942;2023-04-16T13:53:39;1.30;;;0.85;;
74369;SDS011;62805;44.644;10.942;2023-04-16T13:56:04;0.73;;;0.50;;
74369;SDS011;62805;44.644;10.942;2023-04-16T13:58:31;2.47;;;0.90;;
74369;SDS011;62805;44.644;10.942;2023-04-16T14:00:56;1.73;;;0.60;;
74369;SDS011;62805;44.644;10.942;2023-04-16T14:03:23;2.53;;;1.20;;
74369;SDS011;62805;44.644;10.942;2023-04-16T14:05:49;2.25;;;0.80;;
74369;SDS011;62805;44.644;10.942;2023-04-16T14:08:14;2.43;;;1.13;;
74369;SDS011;62805;44.644;10.942;2023-04-16T14:10:40;1.30;;;0.70;;
74369;SDS011;62805;44.644;10.942;2023-04-16T14:13:06;1.77;;;0.52;;
74369;SDS011;62805;44.644;10.942;2023-04-16T14:15:31;1.08;;;0.63;;
74369;SDS011;62805;44.644;10.942;2023-04-16T14:17:57;1.67;;;1.10;;
74369;SDS011;62805;44.644;10.942;2023-04-16T14:20:22;0.90;;;0.40;;
74369;SDS011;62805;44.644;10.942;2023-04-16T14:22:47;3.83;;;2.65;;
74369;SDS011;62805;44.644;10.942;2023-04-16T14:25:13;1.10;;;0.45;;
74369;SDS011;62805;44.644;10.942;2023-04-16T14:27:39;2.97;;;0.90;;
74369;SDS011;62805;44.644;10.942;2023-04-16T14:30:05;2.92;;;0.70;;
74369;SDS011;62805;44.644;10.942;2023-04-16T14:32:31;0.93;;;0.50;;
74369;SDS011;62805;44.644;10.942;2023-04-16T14:34:56;3.72;;;1.80;;
74369;SDS011;62805;44.644;10.942;2023-04-16T14:37:22;1.63;;;0.53;;
74369;SDS011;62805;44.644;10.942;2023-04-16T14:39:47;1.30;;;0.88;;
74369;SDS011;62805;44.644;10.942;2023-04-16T14:42:13;1.65;;;0.50;;
74369;SDS011;62805;44.644;10.942;2023-04-16T14:44:38;0.50;;;0.25;;
74369;SDS011;62805;44.644;10.942;2023-04-16T14:47:04;0.80;;;0.40;;